createdAt,value
2019-05-22T00:00:25.909Z,12.90
2019-05-22T00:02:58.544Z,12.90
2019-05-22T00:05:33.081Z,12.90
2019-05-22T00:08:09.106Z,12.90
2019-05-22T00:10:43.501Z,12.90
2019-05-22T00:13:20.494Z,12.90
2019-05-22T00:15:54.084Z,12.80
2019-05-22T00:18:28.042Z,12.80
2019-05-22T00:21:00.032Z,12.80
2019-05-22T00:23:32.982Z,12.80
2019-05-22T00:26:05.538Z,12.80
2019-05-22T00:29:07.440Z,12.80
2019-05-22T00:31:40.180Z,12.80
2019-05-22T00:34:14.097Z,12.80
2019-05-22T00:36:46.737Z,12.70
2019-05-22T00:39:21.502Z,12.80
2019-05-22T00:41:55.057Z,12.80
2019-05-22T00:44:28.164Z,12.80
2019-05-22T00:47:01.608Z,12.70
2019-05-22T00:49:33.848Z,12.80
2019-05-22T00:52:22.622Z,12.70
2019-05-22T00:55:15.450Z,12.80
2019-05-22T00:57:53.717Z,12.80
2019-05-22T01:00:39.628Z,12.80
2019-05-22T01:03:16.370Z,12.70
2019-05-22T01:05:48.654Z,12.70
2019-05-22T01:08:21.985Z,12.70
2019-05-22T01:10:54.693Z,12.70
2019-05-22T01:13:30.866Z,12.70
2019-05-22T01:16:02.736Z,12.70
2019-05-22T01:18:36.020Z,12.70
2019-05-22T01:21:10.264Z,12.70
2019-05-22T01:23:43.724Z,12.70
2019-05-22T01:26:20.013Z,12.70
2019-05-22T01:28:51.350Z,12.70
2019-05-22T01:31:27.951Z,12.70
2019-05-22T01:34:27.277Z,12.70
2019-05-22T01:37:02.670Z,12.70
2019-05-22T01:39:47.593Z,12.70
2019-05-22T01:42:28.245Z,12.70
2019-05-22T01:45:06.609Z,12.60
2019-05-22T01:48:00.304Z,12.60
2019-05-22T01:50:56.161Z,12.60
2019-05-22T01:53:37.573Z,12.60
2019-05-22T01:56:12.490Z,12.60
2019-05-22T01:58:45.166Z,12.60
2019-05-22T02:01:20.770Z,12.60
2019-05-22T02:03:56.684Z,12.60
2019-05-22T02:06:29.148Z,12.60
2019-05-22T02:09:27.100Z,12.60
2019-05-22T02:12:10.307Z,12.60
2019-05-22T02:14:46.280Z,12.70
2019-05-22T02:17:21.245Z,12.60
2019-05-22T02:19:53.381Z,12.60
2019-05-22T02:22:26.764Z,12.60
2019-05-22T02:24:59.967Z,12.60
2019-05-22T02:27:31.537Z,12.60
2019-05-22T02:30:04.772Z,12.60
2019-05-22T02:32:37.742Z,12.60
2019-05-22T02:35:10.296Z,12.50
2019-05-22T02:37:43.274Z,12.60
2019-05-22T02:40:25.872Z,12.50
2019-05-22T02:42:57.806Z,12.50
2019-05-22T02:45:30.246Z,12.60
2019-05-22T02:48:04.111Z,12.60
2019-05-22T02:50:35.524Z,12.60
2019-05-22T02:53:11.318Z,12.50
2019-05-22T02:55:43.219Z,12.60
2019-05-22T02:58:17.208Z,12.60
2019-05-22T03:01:00.314Z,12.50
2019-05-22T03:03:33.741Z,12.50
2019-05-22T03:06:10.624Z,12.50
2019-05-22T03:09:20.541Z,12.50
2019-05-22T03:12:11.648Z,12.50
2019-05-22T03:14:43.976Z,12.50
2019-05-22T03:17:30.226Z,12.50
2019-05-22T03:20:11.508Z,12.50
2019-05-22T03:22:58.787Z,12.40
2019-05-22T03:25:33.538Z,12.40
2019-05-22T03:28:08.037Z,12.40
2019-05-22T03:30:44.024Z,12.50
2019-05-22T03:33:16.199Z,12.50
2019-05-22T03:35:52.039Z,12.40
2019-05-22T03:38:25.902Z,12.40
2019-05-22T03:40:57.865Z,12.50
2019-05-22T03:43:30.818Z,12.50
2019-05-22T03:46:12.518Z,12.50
2019-05-22T03:48:44.855Z,12.50
2019-05-22T03:51:18.454Z,12.40
2019-05-22T03:53:50.002Z,12.40
2019-05-22T03:56:22.301Z,12.40
2019-05-22T03:58:55.490Z,12.50
2019-05-22T04:01:26.873Z,12.50
2019-05-22T04:03:59.622Z,12.50
2019-05-22T04:06:32.967Z,12.50
2019-05-22T04:09:20.501Z,12.50
2019-05-22T04:11:53.708Z,12.50
2019-05-22T04:14:35.568Z,12.50
2019-05-22T04:17:10.257Z,12.60
2019-05-22T04:19:50.005Z,12.60
2019-05-22T04:22:18.116Z,12.60
2019-05-22T04:24:49.964Z,12.50
2019-05-22T04:27:22.600Z,12.60
2019-05-22T04:29:54.051Z,12.60
2019-05-22T04:32:37.265Z,12.60
2019-05-22T04:35:12.161Z,12.60
2019-05-22T04:37:44.512Z,12.60
2019-05-22T04:40:55.689Z,12.60
2019-05-22T04:43:32.574Z,12.60
2019-05-22T04:46:08.357Z,12.60
2019-05-22T04:48:45.539Z,12.60
2019-05-22T04:51:29.970Z,12.60
2019-05-22T04:54:01.560Z,12.60
2019-05-22T04:56:32.901Z,12.60
2019-05-22T04:59:05.346Z,12.70
2019-05-22T05:01:37.698Z,12.70
2019-05-22T05:04:09.400Z,12.70
2019-05-22T05:06:40.870Z,12.70
2019-05-22T05:09:14.156Z,12.70
2019-05-22T05:11:45.916Z,12.70
2019-05-22T05:14:17.384Z,12.70
2019-05-22T05:16:49.135Z,12.80
2019-05-22T05:19:20.865Z,12.80
2019-05-22T05:21:52.342Z,12.90
2019-05-22T05:24:24.108Z,12.80
2019-05-22T05:26:55.640Z,12.90
2019-05-22T05:29:30.287Z,12.90
2019-05-22T05:32:02.769Z,12.80
2019-05-22T05:34:52.897Z,12.80
2019-05-22T05:37:25.082Z,12.80
2019-05-22T05:40:33.623Z,12.80
2019-05-22T05:43:07.106Z,12.80
2019-05-22T05:45:41.035Z,12.90
2019-05-22T05:48:17.105Z,12.90
2019-05-22T05:51:40.462Z,12.90
2019-05-22T05:54:15.968Z,12.90
2019-05-22T05:56:50.179Z,12.90
2019-05-22T05:59:24.288Z,12.90
2019-05-22T06:01:56.464Z,13.00
2019-05-22T06:04:39.499Z,12.90
2019-05-22T06:07:25.028Z,13.00
2019-05-22T06:11:09.052Z,13.00
2019-05-22T06:13:40.409Z,13.00
2019-05-22T06:17:25.859Z,12.90
2019-05-22T06:20:01.024Z,12.90
2019-05-22T06:22:32.522Z,12.90
2019-05-22T06:25:05.101Z,12.90
2019-05-22T06:27:49.958Z,12.90
2019-05-22T06:30:46.363Z,12.90
2019-05-22T06:33:45.944Z,12.90
2019-05-22T06:36:18.483Z,13.00
2019-05-22T06:39:17.225Z,13.00
2019-05-22T06:41:49.488Z,13.10
2019-05-22T06:44:35.066Z,13.20
2019-05-22T06:47:17.739Z,13.30
2019-05-22T06:49:55.373Z,13.40
2019-05-22T06:52:27.446Z,13.50
2019-05-22T06:54:59.168Z,13.50
2019-05-22T06:57:34.344Z,13.60
2019-05-22T07:00:15.379Z,13.60
2019-05-22T07:02:47.088Z,13.70
2019-05-22T07:05:18.711Z,13.80
2019-05-22T07:07:50.483Z,13.80
2019-05-22T07:10:22.533Z,13.80
2019-05-22T07:12:55.472Z,13.90
2019-05-22T07:15:54.034Z,13.90
2019-05-22T07:18:29.648Z,13.90
2019-05-22T07:21:01.313Z,13.90
2019-05-22T07:23:34.768Z,13.90
2019-05-22T07:26:06.666Z,13.90
2019-05-22T07:28:38.865Z,14.00
2019-05-22T07:31:10.751Z,14.00
2019-05-22T07:33:42.343Z,14.00
2019-05-22T07:36:17.032Z,14.10
2019-05-22T07:38:48.804Z,14.10
2019-05-22T07:41:20.624Z,14.20
2019-05-22T07:43:52.119Z,14.20
2019-05-22T07:46:24.196Z,14.30
2019-05-22T07:48:56.136Z,14.10
2019-05-22T07:51:28.618Z,14.10
2019-05-22T07:54:00.263Z,14.20
2019-05-22T07:56:32.371Z,14.30
2019-05-22T07:59:04.926Z,14.40
2019-05-22T08:01:36.683Z,14.60
2019-05-22T08:04:08.676Z,14.70
2019-05-22T08:06:40.626Z,14.70
2019-05-22T08:09:13.457Z,14.80
2019-05-22T08:11:45.253Z,14.90
2019-05-22T08:14:19.063Z,14.80
2019-05-22T08:16:50.794Z,14.80
2019-05-22T08:19:22.664Z,14.80
2019-05-22T08:22:06.644Z,14.90
2019-05-22T08:24:29.119Z,15.00
2019-05-22T08:27:01.790Z,15.00
2019-05-22T08:29:33.495Z,15.00
2019-05-22T08:32:06.545Z,15.10
2019-05-22T08:34:39.693Z,15.10
2019-05-22T08:37:17.577Z,15.00
2019-05-22T08:39:49.687Z,15.00
2019-05-22T08:42:23.285Z,15.20
2019-05-22T08:44:54.784Z,15.40
2019-05-22T08:47:26.667Z,15.50
2019-05-22T08:49:58.157Z,15.60
2019-05-22T08:52:31.399Z,15.60
2019-05-22T08:55:05.094Z,15.60
2019-05-22T08:57:37.023Z,15.40
2019-05-22T09:00:12.386Z,15.30
2019-05-22T09:02:42.583Z,15.20
2019-05-22T09:05:15.416Z,15.10
2019-05-22T09:07:47.245Z,15.10
2019-05-22T09:10:19.199Z,15.10
2019-05-22T09:12:50.626Z,15.00
2019-05-22T09:15:22.143Z,15.00
2019-05-22T09:17:53.541Z,14.90
2019-05-22T09:20:25.678Z,14.90
2019-05-22T09:22:57.645Z,14.80
2019-05-22T09:25:29.611Z,14.70
2019-05-22T09:28:01.824Z,14.60
2019-05-22T09:30:34.981Z,14.50
2019-05-22T09:33:08.274Z,14.50
2019-05-22T09:35:39.785Z,14.60
2019-05-22T09:38:11.879Z,14.70
2019-05-22T09:40:43.682Z,14.80
2019-05-22T09:43:17.491Z,14.70
2019-05-22T09:45:49.158Z,14.70
2019-05-22T09:48:21.221Z,14.70
2019-05-22T09:50:52.884Z,14.70
2019-05-22T09:53:24.700Z,14.70
2019-05-22T09:55:56.757Z,14.70
2019-05-22T09:58:28.847Z,14.70
2019-05-22T10:01:00.594Z,14.70
2019-05-22T10:03:32.215Z,14.70
2019-05-22T10:06:04.700Z,14.70
2019-05-22T10:08:36.318Z,14.80
2019-05-22T10:11:08.058Z,14.70
2019-05-22T10:13:39.974Z,14.60
2019-05-22T10:16:11.637Z,14.60
2019-05-22T10:18:43.227Z,14.70
2019-05-22T10:21:15.434Z,14.70
2019-05-22T10:23:47.040Z,14.80
2019-05-22T10:26:18.772Z,15.00
2019-05-22T10:28:51.257Z,15.20
2019-05-22T10:31:23.175Z,15.30
2019-05-22T10:33:54.736Z,15.40
2019-05-22T10:36:26.201Z,15.40
2019-05-22T10:38:57.932Z,15.30
2019-05-22T10:41:29.980Z,15.20
2019-05-22T10:44:02.209Z,15.10
2019-05-22T10:46:33.926Z,15.00
2019-05-22T10:49:05.592Z,15.00
2019-05-22T10:51:37.325Z,15.00
2019-05-22T10:54:08.890Z,15.10
2019-05-22T10:56:40.414Z,15.20
2019-05-22T10:59:12.212Z,15.30
2019-05-22T11:01:43.758Z,15.30
2019-05-22T11:04:19.375Z,15.20
2019-05-22T11:06:49.444Z,15.10
2019-05-22T11:09:22.301Z,15.10
2019-05-22T11:11:54.428Z,15.10
2019-05-22T11:14:26.721Z,15.20
2019-05-22T11:17:01.432Z,15.20
2019-05-22T11:19:35.767Z,15.30
2019-05-22T11:22:07.452Z,15.60
2019-05-22T11:24:39.086Z,15.90
2019-05-22T11:27:11.548Z,16.50
2019-05-22T11:29:44.528Z,17.40
2019-05-22T11:32:16.743Z,18.30
2019-05-22T11:34:48.819Z,18.90
2019-05-22T11:37:22.040Z,19.30
2019-05-22T11:39:54.132Z,19.50
2019-05-22T11:42:25.856Z,19.70
2019-05-22T11:44:57.479Z,20.00
2019-05-22T11:47:29.495Z,20.00
2019-05-22T11:50:01.590Z,19.80
2019-05-22T11:52:33.825Z,19.60
2019-05-22T11:55:05.921Z,19.40
2019-05-22T11:57:44.043Z,19.30
2019-05-22T12:00:24.830Z,18.90
2019-05-22T12:02:57.690Z,18.60
2019-05-22T12:05:29.292Z,18.40
2019-05-22T12:08:01.903Z,18.30
2019-05-22T12:10:34.098Z,18.50
2019-05-22T12:13:06.157Z,19.00
2019-05-22T12:15:39.430Z,19.50
2019-05-22T12:18:13.195Z,20.00
2019-05-22T12:20:45.325Z,20.30
2019-05-22T12:23:16.848Z,20.80
2019-05-22T12:25:48.573Z,21.50
2019-05-22T12:28:20.644Z,22.20
2019-05-22T12:30:55.502Z,23.20
2019-05-22T12:33:27.446Z,24.50
2019-05-22T12:35:59.428Z,24.80
2019-05-22T12:38:32.028Z,24.40
2019-05-22T12:41:04.530Z,23.60
2019-05-22T12:43:36.007Z,23.00
2019-05-22T12:46:08.411Z,22.70
2019-05-22T12:48:42.649Z,22.40
2019-05-22T12:51:14.775Z,22.00
2019-05-22T12:53:46.809Z,21.60
2019-05-22T12:56:19.166Z,21.30
2019-05-22T12:58:51.395Z,20.90
2019-05-22T13:01:25.034Z,20.40
2019-05-22T13:03:59.292Z,20.00
2019-05-22T13:06:31.296Z,19.60
2019-05-22T13:09:03.580Z,19.20
2019-05-22T13:11:36.178Z,18.90
2019-05-22T13:14:08.268Z,18.60
2019-05-22T13:16:47.216Z,18.40
2019-05-22T13:19:15.744Z,18.00
2019-05-22T13:21:48.021Z,17.90
2019-05-22T13:24:23.029Z,17.70
2019-05-22T13:26:56.366Z,17.70
2019-05-22T13:29:30.357Z,17.70
2019-05-22T13:32:02.999Z,17.60
2019-05-22T13:34:34.619Z,17.60
2019-05-22T13:37:06.502Z,17.60
2019-05-22T13:39:38.115Z,17.70
2019-05-22T13:42:13.426Z,17.70
2019-05-22T13:44:44.128Z,17.70
2019-05-22T13:47:16.442Z,17.70
2019-05-22T13:49:48.515Z,17.50
2019-05-22T13:52:20.044Z,17.40
2019-05-22T13:54:51.726Z,17.40
2019-05-22T13:57:24.238Z,17.30
2019-05-22T13:59:55.718Z,17.20
2019-05-22T14:02:27.679Z,17.00
2019-05-22T14:05:02.099Z,16.90
2019-05-22T14:07:33.878Z,16.80
2019-05-22T14:10:06.837Z,16.60
2019-05-22T14:12:38.944Z,16.60
2019-05-22T14:15:11.597Z,16.50
2019-05-22T14:17:43.013Z,16.50
2019-05-22T14:20:17.255Z,16.60
2019-05-22T14:22:48.754Z,16.70
2019-05-22T14:25:22.902Z,16.90
2019-05-22T14:27:54.324Z,17.10
2019-05-22T14:30:27.952Z,17.10
2019-05-22T14:33:04.126Z,17.20
2019-05-22T14:35:47.749Z,17.40
2019-05-22T14:38:11.661Z,17.70
2019-05-22T14:40:43.023Z,17.90
2019-05-22T14:43:14.795Z,18.00
2019-05-22T14:45:50.732Z,18.20
2019-05-22T14:48:29.513Z,18.30
2019-05-22T14:51:01.049Z,18.40
2019-05-22T14:53:33.580Z,18.50
2019-05-22T14:56:05.953Z,18.50
2019-05-22T14:58:39.293Z,18.40
2019-05-22T15:01:11.070Z,18.20
2019-05-22T15:03:42.708Z,17.90
2019-05-22T15:06:14.318Z,17.80
2019-05-22T15:08:46.085Z,17.60
2019-05-22T15:11:18.480Z,17.40
2019-05-22T15:13:50.062Z,17.10
2019-05-22T15:16:21.502Z,16.90
2019-05-22T15:18:53.139Z,16.80
2019-05-22T15:21:25.960Z,16.70
2019-05-22T15:23:58.097Z,16.60
2019-05-22T15:26:31.000Z,16.60
2019-05-22T15:29:02.405Z,16.60
2019-05-22T15:31:34.927Z,16.40
2019-05-22T15:34:07.911Z,16.40
2019-05-22T15:36:40.672Z,16.40
2019-05-22T15:39:15.501Z,16.40
2019-05-22T15:41:48.091Z,16.50
2019-05-22T15:44:20.004Z,16.60
2019-05-22T15:46:51.737Z,16.70
2019-05-22T15:49:24.117Z,16.80
2019-05-22T15:51:56.379Z,16.80
2019-05-22T15:54:29.754Z,16.90
2019-05-22T15:57:03.694Z,17.10
2019-05-22T15:59:38.843Z,17.20
2019-05-22T16:02:12.884Z,17.20
2019-05-22T16:04:45.037Z,17.20
2019-05-22T16:07:18.859Z,17.20
2019-05-22T16:09:51.299Z,17.30
2019-05-22T16:12:23.824Z,17.30
2019-05-22T16:14:55.193Z,17.40
2019-05-22T16:17:30.579Z,17.50
2019-05-22T16:20:04.295Z,17.60
2019-05-22T16:22:36.383Z,17.60
2019-05-22T16:25:09.431Z,17.70
2019-05-22T16:27:44.102Z,17.70
2019-05-22T16:30:16.448Z,17.80
2019-05-22T16:32:48.754Z,17.90
2019-05-22T16:35:20.514Z,17.90
2019-05-22T16:37:51.991Z,18.00
2019-05-22T16:40:27.369Z,18.00
2019-05-22T16:43:01.344Z,17.90
2019-05-22T16:45:36.010Z,17.90
2019-05-22T16:48:09.253Z,17.90
2019-05-22T16:50:42.069Z,18.00
2019-05-22T16:53:16.076Z,18.10
2019-05-22T16:55:47.726Z,18.10
2019-05-22T16:58:19.865Z,18.10
2019-05-22T17:00:51.823Z,17.90
2019-05-22T17:03:25.184Z,17.90
2019-05-22T17:05:57.114Z,17.80
2019-05-22T17:08:30.254Z,17.70
2019-05-22T17:11:05.277Z,17.70
2019-05-22T17:13:38.692Z,17.70
2019-05-22T17:16:10.509Z,17.70
2019-05-22T17:18:47.412Z,17.80
2019-05-22T17:21:15.812Z,17.80
2019-05-22T17:23:49.017Z,17.90
2019-05-22T17:26:20.728Z,17.80
2019-05-22T17:28:52.225Z,17.80
2019-05-22T17:31:24.974Z,17.60
2019-05-22T17:33:57.680Z,17.50
2019-05-22T17:36:31.839Z,17.40
2019-05-22T17:39:07.441Z,17.20
2019-05-22T17:41:42.522Z,17.10
2019-05-22T17:44:14.549Z,17.00
2019-05-22T17:46:47.230Z,16.90
2019-05-22T17:49:20.414Z,16.80
2019-05-22T17:51:53.210Z,16.70
2019-05-22T17:54:24.997Z,16.60
2019-05-22T17:56:56.916Z,16.50
2019-05-22T17:59:28.437Z,16.50
2019-05-22T18:02:00.619Z,16.40
2019-05-22T18:04:32.119Z,16.30
2019-05-22T18:07:03.611Z,16.30
2019-05-22T18:09:35.565Z,16.10
2019-05-22T18:12:09.338Z,16.00
2019-05-22T18:14:40.741Z,16.00
2019-05-22T18:17:12.534Z,16.00
2019-05-22T18:19:44.979Z,15.80
2019-05-22T18:22:17.028Z,15.80
2019-05-22T18:24:48.515Z,15.70
2019-05-22T18:27:20.066Z,15.60
2019-05-22T18:29:52.454Z,15.50
2019-05-22T18:32:24.006Z,15.50
2019-05-22T18:34:55.449Z,15.40
2019-05-22T18:37:27.022Z,15.30
2019-05-22T18:39:58.935Z,15.20
2019-05-22T18:42:30.436Z,15.20
2019-05-22T18:45:01.802Z,15.10
2019-05-22T18:47:33.476Z,15.10
2019-05-22T18:50:05.748Z,15.00
2019-05-22T18:52:41.217Z,14.90
2019-05-22T18:55:10.647Z,14.80
2019-05-22T18:57:42.416Z,14.60
2019-05-22T19:00:15.451Z,14.50
2019-05-22T19:02:47.186Z,14.40
2019-05-22T19:05:53.726Z,14.30
2019-05-22T19:08:25.172Z,14.20
2019-05-22T19:10:56.607Z,14.00
2019-05-22T19:13:28.259Z,13.90
2019-05-22T19:15:59.807Z,13.70
2019-05-22T19:18:31.457Z,13.60
2019-05-22T19:21:03.138Z,13.50
2019-05-22T19:23:34.720Z,13.40
2019-05-22T19:26:06.492Z,13.20
2019-05-22T19:28:44.044Z,13.10
2019-05-22T19:31:13.264Z,13.00
2019-05-22T19:33:44.734Z,12.80
2019-05-22T19:36:16.222Z,12.70
2019-05-22T19:38:48.028Z,12.60
2019-05-22T19:41:19.807Z,12.50
2019-05-22T19:43:51.738Z,12.40
2019-05-22T19:46:23.573Z,12.20
2019-05-22T19:48:55.698Z,12.10
2019-05-22T19:51:27.957Z,12.00
2019-05-22T19:54:02.872Z,11.90
2019-05-22T19:56:34.962Z,11.80
2019-05-22T19:59:08.642Z,11.70
2019-05-22T20:01:40.659Z,11.60
2019-05-22T20:04:13.180Z,11.50
2019-05-22T20:06:45.511Z,11.40
2019-05-22T20:09:17.157Z,11.40
2019-05-22T20:11:48.724Z,11.30
2019-05-22T20:14:20.966Z,11.20
2019-05-22T20:16:53.686Z,11.10
2019-05-22T20:19:25.124Z,11.00
2019-05-22T20:21:59.912Z,10.90
2019-05-22T20:24:29.928Z,10.80
2019-05-22T20:27:01.505Z,10.70
2019-05-22T20:29:34.023Z,10.70
2019-05-22T20:32:06.521Z,10.60
2019-05-22T20:34:38.062Z,10.50
2019-05-22T20:37:10.091Z,10.40
2019-05-22T20:39:41.833Z,10.40
2019-05-22T20:42:13.907Z,10.30
2019-05-22T20:44:45.396Z,10.30
2019-05-22T20:47:20.804Z,10.20
2019-05-22T20:49:52.657Z,10.20
2019-05-22T20:52:24.844Z,10.10
2019-05-22T20:54:57.806Z,10.10
2019-05-22T20:57:32.424Z,10.10
2019-05-22T21:00:06.715Z,10.00
2019-05-22T21:02:42.641Z,10.00
2019-05-22T21:05:15.867Z,10.00
2019-05-22T21:07:51.019Z,9.90
2019-05-22T21:10:24.466Z,9.90
2019-05-22T21:12:56.733Z,9.90
2019-05-22T21:15:29.580Z,9.90
2019-05-22T21:18:02.279Z,9.90
2019-05-22T21:20:34.881Z,9.90
2019-05-22T21:23:07.564Z,9.80
2019-05-22T21:25:38.951Z,9.80
2019-05-22T21:28:10.616Z,9.80
2019-05-22T21:30:43.494Z,9.80
2019-05-22T21:33:15.646Z,9.80
2019-05-22T21:35:47.542Z,9.80
2019-05-22T21:38:19.481Z,9.80
2019-05-22T21:40:51.408Z,9.80
2019-05-22T21:43:23.099Z,9.80
2019-05-22T21:45:54.589Z,9.90
2019-05-22T21:48:26.714Z,10.00
2019-05-22T21:50:59.604Z,10.00
2019-05-22T21:53:31.197Z,10.10
2019-05-22T21:56:05.911Z,10.20
2019-05-22T21:58:37.458Z,10.20
2019-05-22T22:01:17.795Z,10.30
2019-05-22T22:03:54.726Z,10.30
2019-05-22T22:06:27.034Z,10.40
2019-05-22T22:08:58.963Z,10.50
2019-05-22T22:11:31.448Z,10.50
2019-05-22T22:14:03.212Z,10.50
2019-05-22T22:16:34.868Z,10.50
2019-05-22T22:19:07.447Z,10.50
2019-05-22T22:21:39.614Z,10.50
2019-05-22T22:24:11.760Z,10.50
2019-05-22T22:26:43.602Z,10.50
2019-05-22T22:29:15.084Z,10.50
2019-05-22T22:31:49.093Z,10.60
2019-05-22T22:34:40.471Z,10.50
2019-05-22T22:37:13.618Z,10.50
2019-05-22T22:39:49.598Z,10.50
2019-05-22T22:42:26.519Z,10.50
2019-05-22T22:44:59.099Z,10.50
2019-05-22T22:47:41.614Z,10.50
2019-05-22T22:50:13.999Z,10.40
2019-05-22T22:52:46.888Z,10.40
2019-05-22T22:55:20.993Z,10.40
2019-05-22T22:57:53.002Z,10.40
2019-05-22T23:00:31.438Z,10.40
2019-05-22T23:03:04.298Z,10.40
2019-05-22T23:05:36.516Z,10.40
2019-05-22T23:08:11.328Z,10.30
2019-05-22T23:10:44.016Z,10.20
2019-05-22T23:13:16.128Z,10.10
2019-05-22T23:15:50.058Z,10.00
2019-05-22T23:19:33.588Z,9.80
2019-05-22T23:22:05.540Z,9.60
2019-05-22T23:24:39.663Z,9.50
2019-05-22T23:27:15.785Z,9.40
2019-05-22T23:29:48.263Z,9.20
2019-05-22T23:32:21.413Z,9.10
2019-05-22T23:34:53.055Z,9.00
2019-05-22T23:37:26.312Z,8.90
2019-05-22T23:39:59.274Z,8.80
2019-05-22T23:42:38.425Z,8.80
2019-05-22T23:45:16.799Z,8.70
2019-05-22T23:48:11.958Z,8.60
2019-05-22T23:50:44.522Z,8.50
2019-05-22T23:53:18.483Z,8.50
2019-05-22T23:55:50.296Z,8.50
2019-05-22T23:58:23.036Z,8.40
